sensor_id;sensor_type;location;lat;lon;timestamp;pressure;altitude;pressure_sealevel;temperature;humidity
62544;BME280;48597;49.030;1.822;2023-07-13T00:01:27;100950.50;;;25.32;45.32
62544;BME280;48597;49.030;1.822;2023-07-13T00:03:53;100956.75;;;25.30;45.39
62544;BME280;48597;49.030;1.822;2023-07-13T00:06:18;100953.88;;;25.30;45.53
62544;BME280;48597;49.030;1.822;2023-07-13T00:08:45;100965.41;;;25.30;45.27
62544;BME280;48597;49.030;1.822;2023-07-13T00:11:11;100961.72;;;25.30;45.37
62544;BME280;48597;49.030;1.822;2023-07-13T00:13:37;100968.00;;;25.28;45.37
62544;BME280;48597;49.030;1.822;2023-07-13T00:16:05;100956.44;;;25.28;45.30
62544;BME280;48597;49.030;1.822;2023-07-13T00:18:30;100958.53;;;25.27;45.49
62544;BME280;48597;49.030;1.822;2023-07-13T00:20:56;100960.63;;;25.27;45.24
62544;BME280;48597;49.030;1.822;2023-07-13T00:23:33;100964.31;;;25.27;45.42
62544;BME280;48597;49.030;1.822;2023-07-13T00:26:00;100956.13;;;25.26;45.24
62544;BME280;48597;49.030;1.822;2023-07-13T00:28:25;100965.59;;;25.26;45.51
62544;BME280;48597;49.030;1.822;2023-07-13T00:30:51;100966.88;;;25.25;45.41
62544;BME280;48597;49.030;1.822;2023-07-13T00:33:16;100968.97;;;25.25;45.25
62544;BME280;48597;49.030;1.822;2023-07-13T00:35:42;100971.03;;;25.24;45.41
62544;BME280;48597;49.030;1.822;2023-07-13T00:38:09;100967.34;;;25.24;45.54
62544;BME280;48597;49.030;1.822;2023-07-13T00:40:34;100968.63;;;25.23;45.30
62544;BME280;48597;49.030;1.822;2023-07-13T00:43:00;100966.56;;;25.23;45.44
62544;BME280;48597;49.030;1.822;2023-07-13T00:47:51;100967.03;;;25.22;45.41
62544;BME280;48597;49.030;1.822;2023-07-13T00:50:17;100978.56;;;25.22;45.67
62544;BME280;48597;49.030;1.822;2023-07-13T00:52:48;100965.44;;;25.21;45.38
62544;BME280;48597;49.030;1.822;2023-07-13T00:55:15;100982.75;;;25.21;45.43
62544;BME280;48597;49.030;1.822;2023-07-13T00:57:41;100975.38;;;25.20;45.50
62544;BME280;48597;49.030;1.822;2023-07-13T01:00:08;100969.59;;;25.20;45.45
62544;BME280;48597;49.030;1.822;2023-07-13T01:02:39;100979.53;;;25.19;45.46
62544;BME280;48597;49.030;1.822;2023-07-13T01:05:19;100982.44;;;25.19;45.38
62544;BME280;48597;49.030;1.822;2023-07-13T01:07:45;100989.00;;;25.19;45.66
62544;BME280;48597;49.030;1.822;2023-07-13T01:10:12;100987.41;;;25.18;45.45
62544;BME280;48597;49.030;1.822;2023-07-13T01:12:38;100989.50;;;25.18;45.41
62544;BME280;48597;49.030;1.822;2023-07-13T01:15:04;100983.75;;;25.18;45.54
62544;BME280;48597;49.030;1.822;2023-07-13T01:17:31;100982.13;;;25.17;45.50
62544;BME280;48597;49.030;1.822;2023-07-13T01:19:58;100990.78;;;25.17;45.42
62544;BME280;48597;49.030;1.822;2023-07-13T01:22:24;100986.31;;;25.16;45.50
62544;BME280;48597;49.030;1.822;2023-07-13T01:24:52;100989.19;;;25.16;45.42
62544;BME280;48597;49.030;1.822;2023-07-13T01:27:21;100992.06;;;25.16;45.61
62544;BME280;48597;49.030;1.822;2023-07-13T01:29:50;101002.81;;;25.15;45.35
62544;BME280;48597;49.030;1.822;2023-07-13T01:32:19;100997.84;;;25.16;45.40
62544;BME280;48597;49.030;1.822;2023-07-13T01:34:50;101004.09;;;25.14;45.42
62544;BME280;48597;49.030;1.822;2023-07-13T01:37:16;100994.63;;;25.14;45.49
62544;BME280;48597;49.030;1.822;2023-07-13T01:39:42;100999.59;;;25.13;45.41
62544;BME280;48597;49.030;1.822;2023-07-13T01:42:07;101000.88;;;25.12;45.44
62544;BME280;48597;49.030;1.822;2023-07-13T01:44:33;101007.47;;;25.13;45.54
62544;BME280;48597;49.030;1.822;2023-07-13T01:46:58;101007.47;;;25.13;45.48
62544;BME280;48597;49.030;1.822;2023-07-13T01:49:23;101007.94;;;25.11;45.42
62544;BME280;48597;49.030;1.822;2023-07-13T01:51:49;101005.06;;;25.11;45.36
62544;BME280;48597;49.030;1.822;2023-07-13T01:54:14;101012.44;;;25.12;45.40
62544;BME280;48597;49.030;1.822;2023-07-13T01:56:40;101007.13;;;25.11;45.51
62544;BME280;48597;49.030;1.822;2023-07-13T01:59:07;101007.13;;;25.11;45.49
62544;BME280;48597;49.030;1.822;2023-07-13T02:01:32;101009.22;;;25.10;45.37
62544;BME280;48597;49.030;1.822;2023-07-13T02:03:58;101000.56;;;25.10;45.43
62544;BME280;48597;49.030;1.822;2023-07-13T02:06:23;101002.66;;;25.10;45.47
62544;BME280;48597;49.030;1.822;2023-07-13T02:08:48;100998.97;;;25.09;45.28
62544;BME280;48597;49.030;1.822;2023-07-13T02:11:14;100998.16;;;25.09;45.32
62544;BME280;48597;49.030;1.822;2023-07-13T02:13:39;101003.13;;;25.08;45.38
62544;BME280;48597;49.030;1.822;2023-07-13T02:16:05;101003.13;;;25.08;45.31
62544;BME280;48597;49.030;1.822;2023-07-13T02:18:31;101000.25;;;25.08;45.45
62544;BME280;48597;49.030;1.822;2023-07-13T02:20:56;101001.53;;;25.07;45.40
62544;BME280;48597;49.030;1.822;2023-07-13T02:23:22;100995.75;;;25.07;45.31
62544;BME280;48597;49.030;1.822;2023-07-13T02:25:47;100997.03;;;25.06;45.47
62544;BME280;48597;49.030;1.822;2023-07-13T02:28:12;101000.72;;;25.07;45.40
62544;BME280;48597;49.030;1.822;2023-07-13T02:30:38;101003.31;;;25.05;45.35
62544;BME280;48597;49.030;1.822;2023-07-13T02:33:04;100994.66;;;25.05;45.46
62544;BME280;48597;49.030;1.822;2023-07-13T02:35:30;100994.66;;;25.05;45.41
62544;BME280;48597;49.030;1.822;2023-07-13T02:37:55;100991.00;;;25.04;45.45
62544;BME280;48597;49.030;1.822;2023-07-13T02:40:20;100995.16;;;25.03;45.41
62544;BME280;48597;49.030;1.822;2023-07-13T02:42:46;100989.38;;;25.03;45.34
62544;BME280;48597;49.030;1.822;2023-07-13T02:45:11;100988.59;;;25.03;45.38
62544;BME280;48597;49.030;1.822;2023-07-13T02:47:40;100988.59;;;25.03;45.46
62544;BME280;48597;49.030;1.822;2023-07-13T02:50:06;100987.78;;;25.02;45.33
62544;BME280;48597;49.030;1.822;2023-07-13T02:52:31;100992.75;;;25.02;45.43
62544;BME280;48597;49.030;1.822;2023-07-13T02:54:57;100995.63;;;25.02;45.38
62544;BME280;48597;49.030;1.822;2023-07-13T02:57:22;100991.94;;;25.01;45.36
62544;BME280;48597;49.030;1.822;2023-07-13T02:59:48;100986.97;;;25.02;45.43
62544;BME280;48597;49.030;1.822;2023-07-13T03:02:13;100988.25;;;25.01;45.41
62544;BME280;48597;49.030;1.822;2023-07-13T03:04:38;100991.16;;;25.01;45.25
62544;BME280;48597;49.030;1.822;2023-07-13T03:07:06;100984.56;;;25.00;45.40
62544;BME280;48597;49.030;1.822;2023-07-13T03:09:33;100987.47;;;25.00;45.28
62544;BME280;48597;49.030;1.822;2023-07-13T03:11:58;100994.03;;;25.01;45.44
62544;BME280;48597;49.030;1.822;2023-07-13T03:14:24;100991.63;;;24.99;45.47
62544;BME280;48597;49.030;1.822;2023-07-13T03:16:50;100994.50;;;24.99;45.39
62544;BME280;48597;49.030;1.822;2023-07-13T03:19:17;100995.31;;;25.00;45.51
62544;BME280;48597;49.030;1.822;2023-07-13T03:21:42;100994.50;;;24.99;45.44
62544;BME280;48597;49.030;1.822;2023-07-13T03:24:08;100998.69;;;24.98;45.46
62544;BME280;48597;49.030;1.822;2023-07-13T03:26:33;101004.44;;;24.98;45.43
62544;BME280;48597;49.030;1.822;2023-07-13T03:28:58;101002.84;;;24.97;45.22
62544;BME280;48597;49.030;1.822;2023-07-13T03:31:28;101002.84;;;24.97;45.30
62544;BME280;48597;49.030;1.822;2023-07-13T03:33:55;101005.72;;;24.97;45.42
62544;BME280;48597;49.030;1.822;2023-07-13T03:36:24;101007.34;;;24.98;45.33
62544;BME280;48597;49.030;1.822;2023-07-13T03:38:52;101002.03;;;24.97;45.35
62544;BME280;48597;49.030;1.822;2023-07-13T03:41:18;101004.13;;;24.96;45.38
62544;BME280;48597;49.030;1.822;2023-07-13T03:43:44;101004.13;;;24.96;45.43
62544;BME280;48597;49.030;1.822;2023-07-13T03:46:09;100999.63;;;24.95;45.50
62544;BME280;48597;49.030;1.822;2023-07-13T03:48:35;101008.28;;;24.95;45.31
62544;BME280;48597;49.030;1.822;2023-07-13T03:51:00;101009.56;;;24.94;45.40
62544;BME280;48597;49.030;1.822;2023-07-13T03:53:26;100995.94;;;24.95;45.43
62544;BME280;48597;49.030;1.822;2023-07-13T03:55:52;101007.50;;;24.95;45.23
62544;BME280;48597;49.030;1.822;2023-07-13T03:58:33;101008.78;;;24.93;45.21
62544;BME280;48597;49.030;1.822;2023-07-13T04:01:00;101007.97;;;24.93;45.34
62544;BME280;48597;49.030;1.822;2023-07-13T04:03:26;101021.09;;;24.94;45.42
62544;BME280;48597;49.030;1.822;2023-07-13T04:05:53;101010.06;;;24.92;45.34
62544;BME280;48597;49.030;1.822;2023-07-13T04:08:19;101013.72;;;24.93;45.01
62544;BME280;48597;49.030;1.822;2023-07-13T04:10:44;101009.25;;;24.92;45.27
62544;BME280;48597;49.030;1.822;2023-07-13T04:13:10;101017.91;;;24.92;45.32
62544;BME280;48597;49.030;1.822;2023-07-13T04:15:35;101022.06;;;24.91;45.33
62544;BME280;48597;49.030;1.822;2023-07-13T04:18:01;101019.97;;;24.91;45.20
62544;BME280;48597;49.030;1.822;2023-07-13T04:20:28;101016.28;;;24.91;45.42
62544;BME280;48597;49.030;1.822;2023-07-13T04:22:53;101015.50;;;24.90;45.32
62544;BME280;48597;49.030;1.822;2023-07-13T04:25:20;101013.41;;;24.91;45.51
62544;BME280;48597;49.030;1.822;2023-07-13T04:27:46;101017.56;;;24.90;45.40
62544;BME280;48597;49.030;1.822;2023-07-13T04:30:12;101017.56;;;24.90;45.44
62544;BME280;48597;49.030;1.822;2023-07-13T04:32:37;101021.25;;;24.90;45.39
62544;BME280;48597;49.030;1.822;2023-07-13T04:35:03;101020.47;;;24.90;45.50
62544;BME280;48597;49.030;1.822;2023-07-13T04:37:29;101024.63;;;24.89;45.43
62544;BME280;48597;49.030;1.822;2023-07-13T04:39:55;101027.50;;;24.89;45.49
62544;BME280;48597;49.030;1.822;2023-07-13T04:42:20;101024.63;;;24.89;45.37
62544;BME280;48597;49.030;1.822;2023-07-13T04:44:52;101042.72;;;24.89;45.37
62544;BME280;48597;49.030;1.822;2023-07-13T04:47:20;101041.13;;;24.88;45.37
62544;BME280;48597;49.030;1.822;2023-07-13T04:49:45;101040.31;;;24.88;45.70
62544;BME280;48597;49.030;1.822;2023-07-13T04:52:11;101046.09;;;24.88;45.52
62544;BME280;48597;49.030;1.822;2023-07-13T04:54:37;101043.69;;;24.86;45.37
62544;BME280;48597;49.030;1.822;2023-07-13T04:57:03;101051.84;;;24.88;45.43
62544;BME280;48597;49.030;1.822;2023-07-13T04:59:32;101055.22;;;24.86;45.40
62544;BME280;48597;49.030;1.822;2023-07-13T05:01:57;101050.25;;;24.87;45.31
62544;BME280;48597;49.030;1.822;2023-07-13T05:04:23;101063.06;;;24.86;45.40
62544;BME280;48597;49.030;1.822;2023-07-13T05:06:48;101061.00;;;24.86;45.34
62544;BME280;48597;49.030;1.822;2023-07-13T05:09:14;101052.34;;;24.86;45.42
62544;BME280;48597;49.030;1.822;2023-07-13T05:11:39;101068.84;;;24.86;45.50
62544;BME280;48597;49.030;1.822;2023-07-13T05:14:04;101053.63;;;24.85;45.56
62544;BME280;48597;49.030;1.822;2023-07-13T05:16:30;101056.50;;;24.85;45.52
62544;BME280;48597;49.030;1.822;2023-07-13T05:18:57;101054.41;;;24.86;45.50
62544;BME280;48597;49.030;1.822;2023-07-13T05:21:22;101060.19;;;24.86;45.52
62544;BME280;48597;49.030;1.822;2023-07-13T05:23:47;101068.03;;;24.85;45.54
62544;BME280;48597;49.030;1.822;2023-07-13T05:26:13;101071.72;;;24.86;45.68
62544;BME280;48597;49.030;1.822;2023-07-13T05:28:39;101069.31;;;24.84;45.46
62544;BME280;48597;49.030;1.822;2023-07-13T05:31:05;101063.53;;;24.84;45.46
62544;BME280;48597;49.030;1.822;2023-07-13T05:33:31;101067.22;;;24.85;45.45
62544;BME280;48597;49.030;1.822;2023-07-13T05:35:57;101068.03;;;24.85;45.52
62544;BME280;48597;49.030;1.822;2023-07-13T05:38:22;101071.38;;;24.84;45.45
62544;BME280;48597;49.030;1.822;2023-07-13T05:40:48;101080.03;;;24.84;45.32
62544;BME280;48597;49.030;1.822;2023-07-13T05:43:14;101075.56;;;24.83;45.32
62544;BME280;48597;49.030;1.822;2023-07-13T05:45:40;101069.78;;;24.83;45.16
62544;BME280;48597;49.030;1.822;2023-07-13T05:48:05;101078.44;;;24.83;45.34
62544;BME280;48597;49.030;1.822;2023-07-13T05:50:31;101078.44;;;24.83;45.49
62544;BME280;48597;49.030;1.822;2023-07-13T05:52:57;101079.25;;;24.83;45.26
62544;BME280;48597;49.030;1.822;2023-07-13T05:55:22;101087.09;;;24.83;45.24
62544;BME280;48597;49.030;1.822;2023-07-13T05:57:47;101084.19;;;24.83;45.29
62544;BME280;48597;49.030;1.822;2023-07-13T06:00:13;101089.97;;;24.83;45.37
62544;BME280;48597;49.030;1.822;2023-07-13T06:02:39;101091.25;;;24.82;45.31
62544;BME280;48597;49.030;1.822;2023-07-13T06:05:05;101088.38;;;24.82;45.33
62544;BME280;48597;49.030;1.822;2023-07-13T06:07:30;101097.00;;;24.82;45.29
62544;BME280;48597;49.030;1.822;2023-07-13T06:09:56;101099.91;;;24.82;45.47
62544;BME280;48597;49.030;1.822;2023-07-13T06:12:21;101099.09;;;24.81;45.32
62544;BME280;48597;49.030;1.822;2023-07-13T06:14:47;101096.22;;;24.81;45.28
62544;BME280;48597;49.030;1.822;2023-07-13T06:17:12;101097.50;;;24.80;45.23
62544;BME280;48597;49.030;1.822;2023-07-13T06:19:37;101095.41;;;24.81;45.14
62544;BME280;48597;49.030;1.822;2023-07-13T06:22:03;101101.19;;;24.81;45.11
62544;BME280;48597;49.030;1.822;2023-07-13T06:24:28;101101.19;;;24.81;44.95
62544;BME280;48597;49.030;1.822;2023-07-13T06:26:54;101098.28;;;24.81;45.22
62544;BME280;48597;49.030;1.822;2023-07-13T06:29:19;101108.22;;;24.80;45.11
62544;BME280;48597;49.030;1.822;2023-07-13T06:31:45;101114.78;;;24.80;45.17
62544;BME280;48597;49.030;1.822;2023-07-13T06:34:10;101120.56;;;24.80;45.38
62544;BME280;48597;49.030;1.822;2023-07-13T06:36:35;101108.22;;;24.80;45.24
62544;BME280;48597;49.030;1.822;2023-07-13T06:39:02;101109.03;;;24.80;45.11
62544;BME280;48597;49.030;1.822;2023-07-13T06:41:27;101105.34;;;24.80;45.03
62544;BME280;48597;49.030;1.822;2023-07-13T06:43:53;101108.22;;;24.80;44.84
62544;BME280;48597;49.030;1.822;2023-07-13T06:46:21;101103.75;;;24.79;45.05
62544;BME280;48597;49.030;1.822;2023-07-13T06:48:47;101106.66;;;24.79;44.97
62544;BME280;48597;49.030;1.822;2023-07-13T06:51:12;101109.53;;;24.79;45.05
62544;BME280;48597;49.030;1.822;2023-07-13T06:53:38;101107.44;;;24.79;45.11
62544;BME280;48597;49.030;1.822;2023-07-13T06:56:03;101116.88;;;24.80;45.01
62544;BME280;48597;49.030;1.822;2023-07-13T06:58:29;101112.41;;;24.79;45.09
62544;BME280;48597;49.030;1.822;2023-07-13T07:00:54;101109.53;;;24.79;45.08
62544;BME280;48597;49.030;1.822;2023-07-13T07:03:20;101111.63;;;24.78;44.95
62544;BME280;48597;49.030;1.822;2023-07-13T07:05:45;101113.22;;;24.79;44.99
62544;BME280;48597;49.030;1.822;2023-07-13T07:08:11;101114.50;;;24.78;44.85
62544;BME280;48597;49.030;1.822;2023-07-13T07:10:36;101123.94;;;24.79;44.87
62544;BME280;48597;49.030;1.822;2023-07-13T07:13:03;101123.94;;;24.79;45.23
62544;BME280;48597;49.030;1.822;2023-07-13T07:15:29;101112.41;;;24.79;45.33
62544;BME280;48597;49.030;1.822;2023-07-13T07:17:55;101123.16;;;24.78;44.97
62544;BME280;48597;49.030;1.822;2023-07-13T07:20:20;101118.97;;;24.79;45.05
62544;BME280;48597;49.030;1.822;2023-07-13T07:22:46;101116.09;;;24.79;45.18
62544;BME280;48597;49.030;1.822;2023-07-13T07:25:12;101127.63;;;24.79;45.03
62544;BME280;48597;49.030;1.822;2023-07-13T07:27:38;101121.88;;;24.79;45.31
62544;BME280;48597;49.030;1.822;2023-07-13T07:30:04;101116.88;;;24.80;45.40
62544;BME280;48597;49.030;1.822;2023-07-13T07:32:30;101132.59;;;24.79;45.21
62544;BME280;48597;49.030;1.822;2023-07-13T07:34:57;101126.84;;;24.79;45.13
62544;BME280;48597;49.030;1.822;2023-07-13T07:37:22;101131.28;;;24.80;45.18
62544;BME280;48597;49.030;1.822;2023-07-13T07:39:48;101142.03;;;24.79;45.37
62544;BME280;48597;49.030;1.822;2023-07-13T07:42:13;101141.25;;;24.79;45.36
62544;BME280;48597;49.030;1.822;2023-07-13T07:44:40;101139.94;;;24.80;45.47
62544;BME280;48597;49.030;1.822;2023-07-13T07:47:06;101145.72;;;24.80;45.73
62544;BME280;48597;49.030;1.822;2023-07-13T07:49:32;101147.00;;;24.79;45.68
62544;BME280;48597;49.030;1.822;2023-07-13T07:51:57;101148.59;;;24.80;45.70
62544;BME280;48597;49.030;1.822;2023-07-13T07:54:23;101151.47;;;24.80;45.67
62544;BME280;48597;49.030;1.822;2023-07-13T07:56:48;101154.34;;;24.80;45.76
62544;BME280;48597;49.030;1.822;2023-07-13T07:59:14;101153.59;;;24.79;45.78
62544;BME280;48597;49.030;1.822;2023-07-13T08:01:39;101157.25;;;24.80;45.81
62544;BME280;48597;49.030;1.822;2023-07-13T08:04:05;101147.81;;;24.79;45.91
62544;BME280;48597;49.030;1.822;2023-07-13T08:06:32;101163.81;;;24.80;45.64
62544;BME280;48597;49.030;1.822;2023-07-13T08:08:59;101155.97;;;24.81;45.92
62544;BME280;48597;49.030;1.822;2023-07-13T08:11:24;101167.50;;;24.81;45.83
62544;BME280;48597;49.030;1.822;2023-07-13T08:13:50;101166.69;;;24.80;45.64
62544;BME280;48597;49.030;1.822;2023-07-13T08:16:15;101157.25;;;24.80;45.79
62544;BME280;48597;49.030;1.822;2023-07-13T08:18:41;101165.41;;;24.81;45.89
62544;BME280;48597;49.030;1.822;2023-07-13T08:21:07;101160.44;;;24.82;45.93
62544;BME280;48597;49.030;1.822;2023-07-13T08:23:33;101157.25;;;24.80;45.79
62544;BME280;48597;49.030;1.822;2023-07-13T08:25:59;101161.72;;;24.81;45.90
62544;BME280;48597;49.030;1.822;2023-07-13T08:28:27;101157.56;;;24.82;45.74
62544;BME280;48597;49.030;1.822;2023-07-13T08:30:52;101161.72;;;24.81;45.89
62544;BME280;48597;49.030;1.822;2023-07-13T08:33:19;101160.94;;;24.80;45.83
62544;BME280;48597;49.030;1.822;2023-07-13T08:35:48;101163.34;;;24.82;46.00
62544;BME280;48597;49.030;1.822;2023-07-13T08:38:15;101162.53;;;24.81;45.93
62544;BME280;48597;49.030;1.822;2023-07-13T08:40:41;101162.53;;;24.81;45.92
62544;BME280;48597;49.030;1.822;2023-07-13T08:43:11;101167.81;;;24.83;45.93
62544;BME280;48597;49.030;1.822;2023-07-13T08:45:47;101169.09;;;24.82;45.86
62544;BME280;48597;49.030;1.822;2023-07-13T08:48:28;101168.28;;;24.81;45.80
62544;BME280;48597;49.030;1.822;2023-07-13T08:51:00;101168.28;;;24.81;45.93
62544;BME280;48597;49.030;1.822;2023-07-13T08:53:35;101167.50;;;24.81;45.86
62544;BME280;48597;49.030;1.822;2023-07-13T08:56:04;101179.81;;;24.81;45.87
62544;BME280;48597;49.030;1.822;2023-07-13T08:58:33;101171.19;;;24.81;45.94
62544;BME280;48597;49.030;1.822;2023-07-13T09:03:58;101169.09;;;24.82;45.85
62544;BME280;48597;49.030;1.822;2023-07-13T09:06:34;101166.22;;;24.82;45.97
62544;BME280;48597;49.030;1.822;2023-07-13T09:12:14;101174.06;;;24.81;45.90
62544;BME280;48597;49.030;1.822;2023-07-13T09:14:48;101174.88;;;24.82;45.93
62544;BME280;48597;49.030;1.822;2023-07-13T09:17:19;101167.50;;;24.81;45.87
62544;BME280;48597;49.030;1.822;2023-07-13T09:19:56;101172.78;;;24.82;46.06
62544;BME280;48597;49.030;1.822;2023-07-13T09:22:24;101166.22;;;24.82;46.13
62544;BME280;48597;49.030;1.822;2023-07-13T09:24:55;101171.50;;;24.83;46.13
62544;BME280;48597;49.030;1.822;2023-07-13T09:27:28;101164.94;;;24.83;46.03
62544;BME280;48597;49.030;1.822;2023-07-13T09:32:29;101171.97;;;24.82;45.84
62544;BME280;48597;49.030;1.822;2023-07-13T09:34:54;101170.69;;;24.83;46.18
62544;BME280;48597;49.030;1.822;2023-07-13T09:37:22;101174.38;;;24.83;46.00
62544;BME280;48597;49.030;1.822;2023-07-13T09:39:49;101177.28;;;24.83;46.05
62544;BME280;48597;49.030;1.822;2023-07-13T09:42:20;101180.16;;;24.83;46.17
62544;BME280;48597;49.030;1.822;2023-07-13T09:47:17;101190.41;;;24.84;45.78
62544;BME280;48597;49.030;1.822;2023-07-13T09:49:43;101180.16;;;24.83;46.02
62544;BME280;48597;49.030;1.822;2023-07-13T09:52:14;101174.38;;;24.83;46.01
62544;BME280;48597;49.030;1.822;2023-07-13T09:54:43;101179.03;;;24.81;45.57
62544;BME280;48597;49.030;1.822;2023-07-13T09:57:17;101190.09;;;24.82;45.90
62544;BME280;48597;49.030;1.822;2023-07-13T09:59:48;101192.97;;;24.82;46.03
62544;BME280;48597;49.030;1.822;2023-07-13T10:02:27;101185.91;;;24.83;45.71
62544;BME280;48597;49.030;1.822;2023-07-13T10:05:10;101187.53;;;24.84;45.79
62544;BME280;48597;49.030;1.822;2023-07-13T10:07:43;101195.38;;;24.84;45.94
62544;BME280;48597;49.030;1.822;2023-07-13T10:10:21;101193.28;;;24.84;45.91
62544;BME280;48597;49.030;1.822;2023-07-13T10:12:48;101186.72;;;24.84;46.02
62544;BME280;48597;49.030;1.822;2023-07-13T10:15:23;101201.47;;;24.86;45.84
62544;BME280;48597;49.030;1.822;2023-07-13T10:17:52;101188.34;;;24.85;45.94
62544;BME280;48597;49.030;1.822;2023-07-13T10:20:18;101201.94;;;24.84;46.03
62544;BME280;48597;49.030;1.822;2023-07-13T10:22:58;101196.50;;;24.86;45.68
62544;BME280;48597;49.030;1.822;2023-07-13T10:25:27;101195.69;;;24.86;46.09
62544;BME280;48597;49.030;1.822;2023-07-13T10:27:56;101192.81;;;24.86;46.16
62544;BME280;48597;49.030;1.822;2023-07-13T10:30:27;101196.50;;;24.86;45.97
62544;BME280;48597;49.030;1.822;2023-07-13T10:33:00;101198.59;;;24.86;45.85
62544;BME280;48597;49.030;1.822;2023-07-13T10:35:29;101205.16;;;24.86;45.85
62544;BME280;48597;49.030;1.822;2023-07-13T10:38:07;101206.75;;;24.87;45.74
62544;BME280;48597;49.030;1.822;2023-07-13T10:40:42;101210.13;;;24.86;46.09
62544;BME280;48597;49.030;1.822;2023-07-13T10:43:18;101215.41;;;24.87;46.02
62544;BME280;48597;49.030;1.822;2023-07-13T10:45:46;101206.75;;;24.87;46.09
62544;BME280;48597;49.030;1.822;2023-07-13T10:48:15;101213.34;;;24.88;46.02
62544;BME280;48597;49.030;1.822;2023-07-13T10:50:45;101210.44;;;24.88;46.10
62544;BME280;48597;49.030;1.822;2023-07-13T10:58:37;101208.38;;;24.88;45.76
62544;BME280;48597;49.030;1.822;2023-07-13T11:03:33;101202.59;;;24.88;46.19
62544;BME280;48597;49.030;1.822;2023-07-13T11:06:10;101195.56;;;24.89;46.12
62544;BME280;48597;49.030;1.822;2023-07-13T11:08:39;101202.59;;;24.88;46.19
62544;BME280;48597;49.030;1.822;2023-07-13T11:13:58;101199.25;;;24.90;46.11
62544;BME280;48597;49.030;1.822;2023-07-13T11:25:00;101193.47;;;24.90;45.64
62544;BME280;48597;49.030;1.822;2023-07-13T11:30:24;101194.28;;;24.90;45.74
62544;BME280;48597;49.030;1.822;2023-07-13T11:33:17;101174.91;;;24.91;45.73
62544;BME280;48597;49.030;1.822;2023-07-13T11:43:40;101174.41;;;24.92;45.93
62544;BME280;48597;49.030;1.822;2023-07-13T11:46:20;101169.44;;;24.93;45.89
62544;BME280;48597;49.030;1.822;2023-07-13T11:48:47;101160.00;;;24.92;46.10
62544;BME280;48597;49.030;1.822;2023-07-13T11:53:50;101173.16;;;24.93;45.96
62544;BME280;48597;49.030;1.822;2023-07-13T11:56:16;101169.44;;;24.93;46.09
62544;BME280;48597;49.030;1.822;2023-07-13T11:58:41;101170.25;;;24.93;46.02
62544;BME280;48597;49.030;1.822;2023-07-13T12:01:16;101173.94;;;24.94;45.97
62544;BME280;48597;49.030;1.822;2023-07-13T12:03:43;101162.41;;;24.94;46.10
62544;BME280;48597;49.030;1.822;2023-07-13T12:06:34;101169.78;;;24.95;45.80
62544;BME280;48597;49.030;1.822;2023-07-13T12:09:14;101164.00;;;24.95;45.86
62544;BME280;48597;49.030;1.822;2023-07-13T12:11:45;101163.22;;;24.95;45.86
62544;BME280;48597;49.030;1.822;2023-07-13T12:14:15;101156.97;;;24.96;46.08
62544;BME280;48597;49.030;1.822;2023-07-13T12:16:41;101156.97;;;24.96;46.09
62544;BME280;48597;49.030;1.822;2023-07-13T12:19:18;101152.00;;;24.97;45.84
62544;BME280;48597;49.030;1.822;2023-07-13T12:21:45;101156.97;;;24.96;46.09
62544;BME280;48597;49.030;1.822;2023-07-13T12:24:19;101152.81;;;24.97;45.87
62544;BME280;48597;49.030;1.822;2023-07-13T12:26:51;101146.25;;;24.97;45.92
62544;BME280;48597;49.030;1.822;2023-07-13T12:29:17;101147.03;;;24.97;45.84
62544;BME280;48597;49.030;1.822;2023-07-13T12:31:48;101146.56;;;24.99;45.99
62544;BME280;48597;49.030;1.822;2023-07-13T12:34:16;101144.97;;;24.98;45.93
62544;BME280;48597;49.030;1.822;2023-07-13T12:36:49;101132.94;;;24.99;45.92
62544;BME280;48597;49.030;1.822;2023-07-13T12:39:24;101139.50;;;25.00;45.90
62544;BME280;48597;49.030;1.822;2023-07-13T12:41:52;101136.63;;;25.00;46.06
62544;BME280;48597;49.030;1.822;2023-07-13T12:44:30;101135.03;;;24.99;45.81
62544;BME280;48597;49.030;1.822;2023-07-13T12:47:04;101137.44;;;25.00;45.85
62544;BME280;48597;49.030;1.822;2023-07-13T12:49:33;101140.31;;;25.00;45.81
62544;BME280;48597;49.030;1.822;2023-07-13T12:52:04;101144.00;;;25.01;45.91
62544;BME280;48597;49.030;1.822;2023-07-13T12:54:39;101146.88;;;25.01;45.87
62544;BME280;48597;49.030;1.822;2023-07-13T12:57:05;101149.78;;;25.01;45.92
62544;BME280;48597;49.030;1.822;2023-07-13T12:59:34;101141.13;;;25.01;45.93
62544;BME280;48597;49.030;1.822;2023-07-13T13:02:02;101130.38;;;25.01;45.76
62544;BME280;48597;49.030;1.822;2023-07-13T13:04:27;101142.72;;;25.02;45.92
62544;BME280;48597;49.030;1.822;2023-07-13T13:07:03;101132.78;;;25.03;45.74
62544;BME280;48597;49.030;1.822;2023-07-13T13:09:31;101132.78;;;25.03;45.95
62544;BME280;48597;49.030;1.822;2023-07-13T13:11:57;101132.00;;;25.02;46.03
62544;BME280;48597;49.030;1.822;2023-07-13T13:14:23;101138.56;;;25.03;46.02
62544;BME280;48597;49.030;1.822;2023-07-13T13:16:50;101130.72;;;25.03;45.85
62544;BME280;48597;49.030;1.822;2023-07-13T13:21:46;101138.09;;;25.04;45.88
62544;BME280;48597;49.030;1.822;2023-07-13T13:24:18;101126.03;;;25.06;45.73
62544;BME280;48597;49.030;1.822;2023-07-13T13:26:45;101135.19;;;25.04;45.79
62544;BME280;48597;49.030;1.822;2023-07-13T13:29:18;101118.69;;;25.05;45.82
62544;BME280;48597;49.030;1.822;2023-07-13T13:31:44;101126.84;;;25.06;45.67
62544;BME280;48597;49.030;1.822;2023-07-13T13:34:11;101124.75;;;25.07;45.90
62544;BME280;48597;49.030;1.822;2023-07-13T13:36:37;101123.16;;;25.06;45.76
62544;BME280;48597;49.030;1.822;2023-07-13T13:39:10;101121.88;;;25.07;45.85
62544;BME280;48597;49.030;1.822;2023-07-13T13:41:40;101116.09;;;25.07;45.75